Shell Knob, MO (65747)

01:31 PM CDT del 23 Ottobre 2014 (GMT -0500)
APRSWXNET Lampe MO US | Change Station
CLOSE
Current Station
Stazione meteo personale
Location: Lampe, MO
Altitudine: 956 ft
Stazioni meteo nelle vicinanze

Alt. 956 ft 36.57 °N, 93.50 °W | Updated 28 minutes ago

Coperto
Coperto
62 °F
Sembra 62 °F
N
0
Vento Variabile Vento da SO
Gusts 4.0 mph

Oggi
Massima -- | Minima -- °F
--% Possibilità di precip.
Ieri
Massima -- | Minima -- °F
Precip. -- in
7:29 AM 6:27 PM
Luna calante, 0% visible
Pressione 30.17 in
Visibilità 10.0 miglia
Nuvole Molto nuvoloso 10000 ft
Punto di rugiada 53 °F
Umidità 72%
Piovosità 0.00 in
Spessore del manto nevoso Non disponibile.
Raggi UV 3 fuori da 12
Polline 1.90 fuori da 12
Qualità dell'aria Non disponibile.
Flu Activity No Activity
METAR KFWB 231815Z AUTO 22005KT 10SM BKN100 17/10 A3017 RMK AO2

More Conditions Fewer Conditions

Pressione 30.17 in
Visibilità 10.0 miglia
Nuvole Molto nuvoloso 10000 ft
Punto di rugiada 53 °F
Umidità 72%
Piovosità 0.00 in
Spessore del manto nevoso Non disponibile.
Raggi UV 3 fuori da 12
Polline 1.90 fuori da 12
Qualità dell'aria Non disponibile.
Flu Activity No Activity
METAR KFWB 231815Z AUTO 22005KT 10SM BKN100 17/10 A3017 RMK AO2

More Conditions Fewer Conditions

10-Day Weather Forecast

Almanac

Astronomia

Oct. 23, 2014 Alba Tramonto
Ora attuale 07:29 CDT 18:27 CDT
Crepuscolo civile 07:02 CDT 18:53 CDT
Crepuscolo nautico 06:32 CDT 19:24 CDT
Crepuscolo astronomico 06:02 CDT 19:54 CDT
Luna 07:09 CDT 18:29 CDT
Estensione della luce visibile 11h 51m
Lunghezza del giorno
10h 58m
Tomorrow will be 2m 10s shorter.
Luna calante, 0% of the Moon is Illuminated
Oggi
Luna calante
Ott 23
Nuovo
Ott 30
Primo quarto
Nov 6
Luna piena
Nov 14
Ultimo quarto

Gli estremi di oggi

State Highs State Lows

Community

WunderPhotos

Upload Photos

1,764,338 foto caricate!

WunderBlogs® & News

Nearby

Profondità neve

Stazione Profondità Altitudine
Non sono state evidenziate nuove nevicate

Attività sismica

Città  Distanza Mag. Data & Ora
Non sono state riportate attività sismiche nelle vicinanze.
Minimo Magnitudo Mostrato è 2.5.

Temperature delle acque costiere

Località Temperatura
Nessun dato dalle stazioni

Stazioni meteo nelle vicinanze